createdAt,value
2023-12-21T00:00:51.395Z,94754.00
2023-12-21T00:01:51.547Z,94754.00
2023-12-21T00:02:51.545Z,94754.00
2023-12-21T00:03:51.633Z,94752.00
2023-12-21T00:04:51.723Z,94753.00
2023-12-21T00:05:51.803Z,94755.00
2023-12-21T00:06:51.822Z,94752.00
2023-12-21T00:07:52.448Z,94749.00
2023-12-21T00:08:51.939Z,94750.00
2023-12-21T00:09:51.999Z,94748.00
2023-12-21T00:10:52.066Z,94744.00
2023-12-21T00:11:52.156Z,94742.00
2023-12-21T00:12:52.204Z,94738.00
2023-12-21T00:13:52.286Z,94734.00
2023-12-21T00:14:52.315Z,94730.00
2023-12-21T00:15:52.441Z,94728.00
2023-12-21T00:16:52.489Z,94731.00
2023-12-21T00:17:52.720Z,94735.00
2023-12-21T00:18:52.658Z,94733.00
2023-12-21T00:19:56.572Z,94731.00
2023-12-21T00:20:53.711Z,94727.00
2023-12-21T00:21:52.680Z,94722.00
2023-12-21T00:22:52.686Z,94719.00
2023-12-21T00:23:52.698Z,94716.00
2023-12-21T00:24:52.716Z,94718.00
2023-12-21T00:25:52.724Z,94722.00
2023-12-21T00:26:52.716Z,94727.00
2023-12-21T00:27:52.677Z,94727.00
2023-12-21T00:28:52.731Z,94723.00
2023-12-21T00:29:52.794Z,94722.00
2023-12-21T00:30:52.934Z,94726.00
2023-12-21T00:31:53.001Z,94730.00
2023-12-21T00:32:53.077Z,94733.00
2023-12-21T00:33:53.147Z,94729.00
2023-12-21T00:34:53.355Z,94728.00
2023-12-21T00:35:53.234Z,94729.00
2023-12-21T00:36:53.335Z,94727.00
2023-12-21T00:37:53.395Z,94725.00
2023-12-21T00:38:53.449Z,94721.00
2023-12-21T00:39:53.660Z,94718.00
2023-12-21T00:40:53.580Z,94714.00
2023-12-21T00:41:53.654Z,94716.00
2023-12-21T00:42:53.825Z,94720.00
2023-12-21T00:43:53.815Z,94716.00
2023-12-21T00:44:53.849Z,94716.00
2023-12-21T00:45:53.908Z,94716.00
2023-12-21T00:46:53.942Z,94718.00
2023-12-21T00:47:54.094Z,94720.00
2023-12-21T00:48:54.140Z,94718.00
2023-12-21T00:49:54.196Z,94715.00
2023-12-21T00:50:54.210Z,94711.00
2023-12-21T00:51:54.310Z,94711.00
2023-12-21T00:52:54.385Z,94715.00
2023-12-21T00:53:54.418Z,94718.00
2023-12-21T00:54:54.518Z,94717.00
2023-12-21T00:55:54.577Z,94715.00
2023-12-21T00:56:54.630Z,94716.00
2023-12-21T00:57:54.713Z,94716.00
2023-12-21T00:58:54.793Z,94715.00
2023-12-21T00:59:54.801Z,94716.00
2023-12-21T01:00:54.926Z,94714.00
2023-12-21T01:01:55.103Z,94713.00
2023-12-21T01:02:55.036Z,94706.00
2023-12-21T01:03:55.113Z,94704.00
2023-12-21T01:04:55.118Z,94707.00
2023-12-21T01:05:55.232Z,94706.00
2023-12-21T01:06:55.301Z,94705.00
2023-12-21T01:07:55.296Z,94702.00
2023-12-21T01:08:55.345Z,94697.00
2023-12-21T01:09:55.428Z,94695.00
2023-12-21T01:10:55.477Z,94695.00
2023-12-21T01:11:55.495Z,94695.00
2023-12-21T01:12:55.588Z,94700.00
2023-12-21T01:13:55.664Z,94703.00
2023-12-21T01:14:55.702Z,94702.00
2023-12-21T01:15:55.833Z,94698.00
2023-12-21T01:16:55.810Z,94699.00
2023-12-21T01:17:55.984Z,94698.00
2023-12-21T01:18:55.981Z,94702.00
2023-12-21T01:20:14.451Z,94703.00
2023-12-21T01:21:14.410Z,94701.00
2023-12-21T01:22:14.429Z,94698.00
2023-12-21T01:23:14.426Z,94694.00
2023-12-21T01:24:14.424Z,94692.00
2023-12-21T01:25:14.478Z,94693.00
2023-12-21T01:26:14.473Z,94694.00
2023-12-21T01:27:22.060Z,94693.00
2023-12-21T01:28:15.483Z,94691.00
2023-12-21T01:29:14.459Z,94687.00
2023-12-21T01:30:14.585Z,94681.00
2023-12-21T01:31:14.498Z,94681.00
2023-12-21T01:32:14.479Z,94681.00
2023-12-21T01:33:14.572Z,94681.00
2023-12-21T01:34:14.588Z,94679.00
2023-12-21T01:35:14.531Z,94678.00
2023-12-21T01:36:14.463Z,94675.00
2023-12-21T01:37:14.577Z,94673.00
2023-12-21T01:38:14.556Z,94677.00
2023-12-21T01:39:14.655Z,94677.00
2023-12-21T01:40:14.800Z,94678.00
2023-12-21T01:41:14.742Z,94680.00
2023-12-21T01:42:14.847Z,94679.00
2023-12-21T01:43:14.914Z,94678.00
2023-12-21T01:44:14.941Z,94677.00
2023-12-21T01:45:15.023Z,94677.00
2023-12-21T01:46:15.124Z,94678.00
2023-12-21T01:47:15.099Z,94678.00
2023-12-21T01:48:15.222Z,94677.00
2023-12-21T01:49:15.344Z,94672.00
2023-12-21T01:50:15.298Z,94670.00
2023-12-21T01:51:15.327Z,94675.00
2023-12-21T01:52:15.523Z,94681.00
2023-12-21T01:53:15.484Z,94681.00
2023-12-21T01:54:15.520Z,94682.00
2023-12-21T01:55:15.563Z,94686.00
2023-12-21T01:56:15.646Z,94684.00
2023-12-21T01:57:15.704Z,94684.00
2023-12-21T01:58:15.822Z,94683.00
2023-12-21T01:59:15.796Z,94678.00
2023-12-21T02:00:15.861Z,94674.00
2023-12-21T02:01:16.043Z,94674.00
2023-12-21T02:02:16.131Z,94673.00
2023-12-21T02:03:16.103Z,94673.00
2023-12-21T02:04:16.271Z,94675.00
2023-12-21T02:05:16.220Z,94676.00
2023-12-21T02:06:16.293Z,94673.00
2023-12-21T02:07:16.483Z,94667.00
2023-12-21T02:08:16.378Z,94666.00
2023-12-21T02:09:16.413Z,94662.00
2023-12-21T02:10:16.517Z,94655.00
2023-12-21T02:11:16.521Z,94659.00
2023-12-21T02:12:16.602Z,94657.00
2023-12-21T02:13:16.680Z,94652.00
2023-12-21T02:14:16.729Z,94649.00
2023-12-21T02:15:16.789Z,94641.00
2023-12-21T02:16:16.856Z,94640.00
2023-12-21T02:17:16.948Z,94641.00
2023-12-21T02:18:17.058Z,94644.00
2023-12-21T02:19:17.113Z,94645.00
2023-12-21T02:20:17.136Z,94646.00
2023-12-21T02:21:17.228Z,94641.00
2023-12-21T02:22:17.291Z,94634.00
2023-12-21T02:23:17.314Z,94630.00
2023-12-21T02:24:17.389Z,94628.00
2023-12-21T02:25:17.510Z,94632.00
2023-12-21T02:26:17.514Z,94630.00
2023-12-21T02:27:17.589Z,94626.00
2023-12-21T02:28:17.688Z,94626.00
2023-12-21T02:29:17.710Z,94632.00
2023-12-21T02:30:17.832Z,94633.00
2023-12-21T02:31:17.886Z,94633.00
2023-12-21T02:32:17.893Z,94629.00
2023-12-21T02:33:18.061Z,94626.00
2023-12-21T02:34:18.101Z,94618.00
2023-12-21T02:35:18.109Z,94616.00
2023-12-21T02:36:18.205Z,94614.00
2023-12-21T02:37:18.272Z,94613.00
2023-12-21T02:38:18.304Z,94614.00
2023-12-21T02:39:18.356Z,94615.00
2023-12-21T02:40:18.458Z,94620.00
2023-12-21T02:41:18.499Z,94621.00
2023-12-21T02:42:18.555Z,94618.00
2023-12-21T02:43:18.673Z,94619.00
2023-12-21T02:44:18.717Z,94617.00
2023-12-21T02:45:18.757Z,94618.00
2023-12-21T02:46:18.817Z,94613.00
2023-12-21T02:47:18.911Z,94616.00
2023-12-21T02:48:19.107Z,94621.00
2023-12-21T02:49:19.202Z,94625.00
2023-12-21T02:50:19.102Z,94625.00
2023-12-21T02:51:19.158Z,94622.00
2023-12-21T02:52:19.267Z,94620.00
2023-12-21T02:53:19.296Z,94619.00
2023-12-21T02:54:19.352Z,94618.00
2023-12-21T02:55:19.523Z,94613.00
2023-12-21T02:56:19.490Z,94614.00
2023-12-21T02:57:19.581Z,94612.00
2023-12-21T02:58:19.677Z,94615.00
2023-12-21T02:59:19.684Z,94612.00
2023-12-21T03:00:19.767Z,94610.00
2023-12-21T03:01:19.948Z,94612.00
2023-12-21T03:02:19.908Z,94612.00
2023-12-21T03:03:19.991Z,94609.00
2023-12-21T03:04:20.072Z,94610.00
2023-12-21T03:05:20.158Z,94616.00
2023-12-21T03:06:20.191Z,94615.00
2023-12-21T03:07:20.258Z,94611.00
2023-12-21T03:08:20.328Z,94610.00
2023-12-21T03:09:20.378Z,94610.00
2023-12-21T03:10:20.456Z,94604.00
2023-12-21T03:11:20.479Z,94599.00
2023-12-21T03:12:20.560Z,94600.00
2023-12-21T03:13:20.690Z,94598.00
2023-12-21T03:14:20.691Z,94595.00
2023-12-21T03:15:20.778Z,94593.00
2023-12-21T03:16:20.845Z,94592.00
2023-12-21T03:17:20.878Z,94594.00
2023-12-21T03:18:20.977Z,94594.00
2023-12-21T03:19:21.109Z,94594.00
2023-12-21T03:20:21.203Z,94594.00
2023-12-21T03:21:21.146Z,94589.00
2023-12-21T03:22:21.265Z,94586.00
2023-12-21T03:23:21.377Z,94583.00
2023-12-21T03:24:21.353Z,94581.00
2023-12-21T03:25:21.435Z,94577.00
2023-12-21T03:26:21.470Z,94575.00
2023-12-21T03:27:21.509Z,94572.00
2023-12-21T03:28:21.569Z,94575.00
2023-12-21T03:29:21.699Z,94580.00
2023-12-21T03:30:22.426Z,94576.00
2023-12-21T03:31:21.845Z,94572.00
2023-12-21T03:32:21.843Z,94567.00
2023-12-21T03:33:21.962Z,94564.00
2023-12-21T03:34:22.087Z,94560.00
2023-12-21T03:35:22.052Z,94554.00
2023-12-21T03:36:22.044Z,94557.00
2023-12-21T03:37:22.153Z,94558.00
2023-12-21T03:38:22.197Z,94558.00
2023-12-21T03:39:22.234Z,94555.00
2023-12-21T03:40:22.400Z,94554.00
2023-12-21T03:41:22.382Z,94557.00
2023-12-21T03:42:22.439Z,94552.00
2023-12-21T03:43:22.545Z,94545.00
2023-12-21T03:44:22.559Z,94546.00
2023-12-21T03:45:22.624Z,94544.00
2023-12-21T03:46:22.693Z,94538.00
2023-12-21T03:47:22.670Z,94532.00
2023-12-21T03:48:22.811Z,94538.00
2023-12-21T03:49:22.897Z,94543.00
2023-12-21T03:50:22.927Z,94543.00
2023-12-21T03:51:22.986Z,94542.00
2023-12-21T03:52:23.008Z,94532.00
2023-12-21T03:53:23.094Z,94528.00
2023-12-21T03:54:23.162Z,94526.00
2023-12-21T03:55:23.254Z,94521.00
2023-12-21T03:56:23.329Z,94516.00
2023-12-21T03:57:23.350Z,94512.00
2023-12-21T03:58:23.488Z,94510.00
2023-12-21T03:59:23.527Z,94507.00
2023-12-21T04:00:23.589Z,94510.00
2023-12-21T04:01:23.747Z,94504.00
2023-12-21T04:02:23.697Z,94502.00
2023-12-21T04:03:23.819Z,94498.00
2023-12-21T04:04:26.801Z,94494.00
2023-12-21T04:05:23.865Z,94490.00
2023-12-21T04:06:23.828Z,94488.00
2023-12-21T04:07:23.825Z,94488.00
2023-12-21T04:08:23.839Z,94486.00
2023-12-21T04:09:23.808Z,94481.00
2023-12-21T04:10:23.950Z,94477.00
2023-12-21T04:11:23.858Z,94480.00
2023-12-21T04:12:23.835Z,94482.00
2023-12-21T04:13:23.889Z,94481.00
2023-12-21T04:14:23.839Z,94480.00
2023-12-21T04:15:23.816Z,94484.00
2023-12-21T04:16:23.902Z,94483.00
2023-12-21T04:17:23.818Z,94484.00
2023-12-21T04:18:23.917Z,94487.00
2023-12-21T04:19:23.975Z,94492.00
2023-12-21T04:20:23.940Z,94485.00
2023-12-21T04:21:23.980Z,94487.00
2023-12-21T04:22:24.073Z,94486.00
2023-12-21T04:23:24.108Z,94483.00
2023-12-21T04:24:24.126Z,94482.00
2023-12-21T04:25:24.213Z,94488.00
2023-12-21T04:26:24.247Z,94492.00
2023-12-21T04:27:24.280Z,94491.00
2023-12-21T04:28:24.398Z,94495.00
2023-12-21T04:29:24.412Z,94495.00
2023-12-21T04:30:31.914Z,94494.00
2023-12-21T04:31:39.366Z,94494.00
2023-12-21T04:32:39.408Z,94491.00
2023-12-21T04:33:39.368Z,94488.00
2023-12-21T04:34:39.405Z,94486.00
2023-12-21T04:35:39.334Z,94480.00
2023-12-21T04:36:39.314Z,94481.00
2023-12-21T04:37:39.483Z,94478.00
2023-12-21T04:38:39.323Z,94479.00
2023-12-21T04:39:39.372Z,94477.00
2023-12-21T04:40:39.397Z,94472.00
2023-12-21T04:41:39.382Z,94473.00
2023-12-21T04:42:39.363Z,94468.00
2023-12-21T04:43:39.405Z,94462.00
2023-12-21T04:44:39.364Z,94456.00
2023-12-21T04:45:39.337Z,94453.00
2023-12-21T04:46:39.444Z,94453.00
2023-12-21T04:47:39.414Z,94454.00
2023-12-21T04:48:39.437Z,94451.00
2023-12-21T04:49:39.375Z,94448.00
2023-12-21T04:50:39.383Z,94444.00
2023-12-21T04:51:39.338Z,94445.00
2023-12-21T04:52:39.465Z,94445.00
2023-12-21T04:53:39.378Z,94443.00
2023-12-21T04:54:39.373Z,94443.00
2023-12-21T04:55:39.468Z,94443.00
2023-12-21T04:56:39.378Z,94439.00
2023-12-21T04:57:39.398Z,94437.00
2023-12-21T04:58:39.661Z,94438.00
2023-12-21T04:59:39.377Z,94440.00
2023-12-21T05:00:39.381Z,94443.00
2023-12-21T05:01:39.389Z,94436.00
2023-12-21T05:02:39.376Z,94432.00
2023-12-21T05:03:39.447Z,94433.00
2023-12-21T05:04:39.509Z,94433.00
2023-12-21T05:05:39.422Z,94425.00
2023-12-21T05:06:39.393Z,94425.00
2023-12-21T05:07:39.472Z,94422.00
2023-12-21T05:08:39.464Z,94421.00
2023-12-21T05:09:39.515Z,94414.00
2023-12-21T05:10:39.592Z,94413.00
2023-12-21T05:11:39.490Z,94406.00
2023-12-21T05:12:39.517Z,94401.00
2023-12-21T05:13:39.654Z,94406.00
2023-12-21T05:14:39.522Z,94410.00
2023-12-21T05:15:39.588Z,94417.00
2023-12-21T05:16:39.634Z,94415.00
2023-12-21T05:17:39.569Z,94415.00
2023-12-21T05:18:39.706Z,94415.00
2023-12-21T05:19:39.615Z,94416.00
2023-12-21T05:20:39.569Z,94418.00
2023-12-21T05:21:39.656Z,94423.00
2023-12-21T05:22:39.705Z,94427.00
2023-12-21T05:23:39.637Z,94433.00
2023-12-21T05:24:39.684Z,94433.00
2023-12-21T05:25:39.700Z,94425.00
2023-12-21T05:26:39.679Z,94424.00
2023-12-21T05:27:39.656Z,94421.00
2023-12-21T05:28:39.885Z,94411.00
2023-12-21T05:29:39.705Z,94404.00
2023-12-21T05:30:39.768Z,94403.00
2023-12-21T05:31:39.800Z,94406.00
2023-12-21T05:32:39.810Z,94402.00
2023-12-21T05:33:39.768Z,94398.00
2023-12-21T05:34:43.197Z,94393.00
2023-12-21T05:35:39.836Z,94394.00
2023-12-21T05:36:39.803Z,94394.00
2023-12-21T05:37:39.824Z,94394.00
2023-12-21T05:38:39.825Z,94391.00
2023-12-21T05:39:39.827Z,94392.00
2023-12-21T05:40:39.816Z,94390.00
2023-12-21T05:41:39.819Z,94390.00
2023-12-21T05:42:39.842Z,94398.00
2023-12-21T05:43:39.891Z,94391.00
2023-12-21T05:44:39.810Z,94384.00
2023-12-21T05:45:39.836Z,94383.00
2023-12-21T05:46:39.841Z,94382.00
2023-12-21T05:47:39.855Z,94373.00
2023-12-21T05:48:39.909Z,94374.00
2023-12-21T05:49:39.966Z,94372.00
2023-12-21T05:50:39.833Z,94378.00
2023-12-21T05:51:39.791Z,94379.00
2023-12-21T05:52:39.870Z,94381.00
2023-12-21T05:53:39.819Z,94376.00
2023-12-21T05:54:39.838Z,94378.00
2023-12-21T05:55:39.948Z,94371.00
2023-12-21T05:56:39.865Z,94374.00
2023-12-21T05:57:39.815Z,94377.00
2023-12-21T05:58:39.953Z,94366.00
2023-12-21T05:59:39.812Z,94364.00
2023-12-21T06:00:39.931Z,94369.00
2023-12-21T06:01:39.908Z,94365.00
2023-12-21T06:02:39.840Z,94365.00
2023-12-21T06:03:39.822Z,94362.00
2023-12-21T06:04:39.971Z,94364.00
2023-12-21T06:05:39.842Z,94370.00
2023-12-21T06:06:39.856Z,94369.00
2023-12-21T06:07:39.885Z,94367.00
2023-12-21T06:08:39.857Z,94374.00
2023-12-21T06:09:39.833Z,94369.00
2023-12-21T06:10:39.847Z,94371.00
2023-12-21T06:11:39.837Z,94370.00
2023-12-21T06:12:39.856Z,94367.00
2023-12-21T06:13:39.883Z,94359.00
2023-12-21T06:14:39.800Z,94349.00
2023-12-21T06:15:39.844Z,94344.00
2023-12-21T06:16:39.897Z,94340.00
2023-12-21T06:17:39.912Z,94336.00
2023-12-21T06:18:39.840Z,94335.00
2023-12-21T06:19:39.964Z,94336.00
2023-12-21T06:20:39.831Z,94341.00
2023-12-21T06:21:39.896Z,94341.00
2023-12-21T06:22:39.840Z,94342.00
2023-12-21T06:23:39.866Z,94351.00
2023-12-21T06:24:39.940Z,94350.00
2023-12-21T06:25:39.824Z,94350.00
2023-12-21T06:26:39.829Z,94354.00
2023-12-21T06:27:39.864Z,94357.00
2023-12-21T06:28:39.857Z,94358.00
2023-12-21T06:29:39.874Z,94356.00
2023-12-21T06:30:39.906Z,94347.00
2023-12-21T06:31:39.934Z,94339.00
2023-12-21T06:32:39.864Z,94340.00
2023-12-21T06:33:39.884Z,94339.00
2023-12-21T06:34:39.863Z,94342.00
2023-12-21T06:35:39.882Z,94340.00
2023-12-21T06:36:39.887Z,94341.00
2023-12-21T06:37:39.954Z,94339.00
2023-12-21T06:38:41.339Z,94332.00
2023-12-21T06:39:39.962Z,94331.00
2023-12-21T06:40:40.089Z,94331.00
2023-12-21T06:41:40.099Z,94328.00
2023-12-21T06:42:40.159Z,94323.00
2023-12-21T06:43:40.273Z,94323.00
2023-12-21T06:44:40.323Z,94321.00
2023-12-21T06:45:40.381Z,94318.00
2023-12-21T06:46:40.449Z,94310.00
2023-12-21T06:47:40.844Z,94311.00
2023-12-21T06:48:40.669Z,94312.00
2023-12-21T06:49:40.645Z,94313.00
2023-12-21T06:50:40.679Z,94315.00
2023-12-21T06:51:40.817Z,94315.00
2023-12-21T06:52:40.837Z,94316.00
2023-12-21T06:53:40.846Z,94315.00
2023-12-21T06:54:40.885Z,94313.00
2023-12-21T06:55:41.860Z,94319.00
2023-12-21T06:56:41.005Z,94321.00
2023-12-21T06:57:41.038Z,94325.00
2023-12-21T06:58:41.299Z,94328.00
2023-12-21T06:59:41.089Z,94332.00
2023-12-21T07:00:41.167Z,94330.00
2023-12-21T07:01:41.218Z,94326.00
2023-12-21T07:02:41.132Z,94323.00
2023-12-21T07:03:41.301Z,94320.00
2023-12-21T07:04:41.319Z,94311.00
2023-12-21T07:05:41.357Z,94304.00
2023-12-21T07:06:41.320Z,94303.00
2023-12-21T07:07:41.809Z,94303.00
2023-12-21T07:08:41.280Z,94299.00
2023-12-21T07:09:41.294Z,94312.00
2023-12-21T07:10:41.386Z,94316.00
2023-12-21T07:11:41.367Z,94316.00
2023-12-21T07:12:41.757Z,94321.00
2023-12-21T07:13:41.509Z,94323.00
2023-12-21T07:14:41.381Z,94315.00
2023-12-21T07:15:41.392Z,94305.00
2023-12-21T07:16:41.897Z,94305.00
2023-12-21T07:17:41.451Z,94300.00
2023-12-21T07:18:41.453Z,94295.00
2023-12-21T07:19:41.407Z,94292.00
2023-12-21T07:20:41.795Z,94290.00
2023-12-21T07:21:41.486Z,94286.00
2023-12-21T07:22:41.532Z,94281.00
2023-12-21T07:23:41.802Z,94282.00
2023-12-21T07:24:41.493Z,94287.00
2023-12-21T07:25:41.816Z,94290.00
2023-12-21T07:26:41.595Z,94294.00
2023-12-21T07:27:41.670Z,94293.00
2023-12-21T07:28:41.972Z,94297.00
2023-12-21T07:29:41.801Z,94296.00
2023-12-21T07:30:42.316Z,94294.00
2023-12-21T07:31:42.086Z,94295.00
2023-12-21T07:32:42.297Z,94289.00
2023-12-21T07:33:42.109Z,94287.00
2023-12-21T07:34:42.182Z,94287.00
2023-12-21T07:35:42.224Z,94290.00
2023-12-21T07:36:42.748Z,94289.00
2023-12-21T07:37:42.429Z,94290.00
2023-12-21T07:38:42.431Z,94290.00
2023-12-21T07:39:42.508Z,94290.00
2023-12-21T07:40:42.789Z,94293.00
2023-12-21T07:41:42.640Z,94291.00
2023-12-21T07:42:42.700Z,94294.00
2023-12-21T07:43:43.024Z,94289.00
2023-12-21T07:44:42.841Z,94287.00
2023-12-21T07:45:43.285Z,94286.00
2023-12-21T07:46:43.962Z,94281.00
2023-12-21T07:47:43.064Z,94268.00
2023-12-21T07:48:43.087Z,94264.00
2023-12-21T07:49:43.133Z,94259.00
2023-12-21T07:50:43.333Z,94257.00
2023-12-21T07:51:44.321Z,94261.00
2023-12-21T07:52:43.281Z,94263.00
2023-12-21T07:53:43.256Z,94264.00
2023-12-21T07:54:43.309Z,94266.00
2023-12-21T07:55:43.907Z,94260.00
2023-12-21T07:56:43.469Z,94270.00
2023-12-21T07:57:43.400Z,94263.00
2023-12-21T07:58:43.456Z,94261.00
2023-12-21T07:59:43.521Z,94252.00
2023-12-21T08:00:43.850Z,94258.00
2023-12-21T08:01:43.566Z,94254.00
2023-12-21T08:02:43.621Z,94246.00
2023-12-21T08:03:43.635Z,94240.00
2023-12-21T08:04:43.835Z,94240.00
2023-12-21T08:05:43.695Z,94237.00
2023-12-21T08:06:43.718Z,94236.00
2023-12-21T08:07:43.794Z,94232.00
2023-12-21T08:08:51.653Z,94232.00
2023-12-21T08:09:44.764Z,94230.00
2023-12-21T08:10:43.852Z,94225.00
2023-12-21T08:11:43.756Z,94228.00
2023-12-21T08:12:43.947Z,94234.00
2023-12-21T08:13:43.776Z,94239.00
2023-12-21T08:14:43.842Z,94240.00
2023-12-21T08:15:43.816Z,94230.00
2023-12-21T08:16:46.899Z,94227.00
2023-12-21T08:17:43.805Z,94224.00
2023-12-21T08:18:43.839Z,94217.00
2023-12-21T08:19:43.868Z,94208.00
2023-12-21T08:20:43.980Z,94205.00
2023-12-21T08:21:43.885Z,94202.00
2023-12-21T08:22:43.858Z,94202.00
2023-12-21T08:23:44.562Z,94210.00
2023-12-21T08:24:43.808Z,94211.00
2023-12-21T08:25:43.845Z,94209.00
2023-12-21T08:26:43.797Z,94207.00
2023-12-21T08:27:43.800Z,94198.00
2023-12-21T08:28:43.917Z,94197.00
2023-12-21T08:29:43.804Z,94192.00
2023-12-21T08:30:43.810Z,94197.00
2023-12-21T08:31:43.827Z,94186.00
2023-12-21T08:32:43.843Z,94178.00
2023-12-21T08:33:44.561Z,94177.00
2023-12-21T08:34:43.825Z,94178.00
2023-12-21T08:35:43.813Z,94174.00
2023-12-21T08:36:43.806Z,94182.00
2023-12-21T08:37:43.878Z,94173.00
2023-12-21T08:38:43.836Z,94160.00
2023-12-21T08:39:43.807Z,94164.00
2023-12-21T08:40:43.837Z,94163.00
2023-12-21T08:41:43.801Z,94153.00
2023-12-21T08:42:43.825Z,94140.00
2023-12-21T08:43:44.397Z,94135.00
2023-12-21T08:44:43.791Z,94143.00
2023-12-21T08:45:43.804Z,94136.00
2023-12-21T08:46:43.904Z,94131.00
2023-12-21T08:47:43.803Z,94128.00
2023-12-21T08:48:44.333Z,94124.00
2023-12-21T08:49:44.035Z,94125.00
2023-12-21T08:50:43.886Z,94123.00
2023-12-21T08:51:43.842Z,94123.00
2023-12-21T08:52:43.955Z,94125.00
2023-12-21T08:53:44.306Z,94115.00
2023-12-21T08:54:44.313Z,94118.00
2023-12-21T08:55:43.933Z,94121.00
2023-12-21T08:56:43.850Z,94120.00
2023-12-21T08:57:43.810Z,94123.00
2023-12-21T08:58:43.992Z,94121.00
2023-12-21T08:59:43.831Z,94118.00
2023-12-21T09:00:44.346Z,94111.00
2023-12-21T09:01:44.405Z,94109.00
2023-12-21T09:02:43.791Z,94113.00
2023-12-21T09:03:43.889Z,94105.00
2023-12-21T09:04:43.905Z,94096.00
2023-12-21T09:05:43.936Z,94096.00
2023-12-21T09:06:44.298Z,94097.00
2023-12-21T09:07:43.921Z,94097.00
2023-12-21T09:08:43.840Z,94094.00
2023-12-21T09:09:43.839Z,94088.00
2023-12-21T09:10:43.920Z,94080.00
2023-12-21T09:11:44.315Z,94074.00
2023-12-21T09:12:43.970Z,94067.00
2023-12-21T09:13:43.860Z,94072.00
2023-12-21T09:14:43.847Z,94081.00
2023-12-21T09:15:46.218Z,94079.00
2023-12-21T09:16:44.404Z,94072.00
2023-12-21T09:17:43.972Z,94068.00
2023-12-21T09:18:43.978Z,94072.00
2023-12-21T09:19:43.873Z,94074.00
2023-12-21T09:20:44.367Z,94070.00
2023-12-21T09:21:43.876Z,94073.00
2023-12-21T09:22:44.795Z,94071.00
2023-12-21T09:23:43.881Z,94071.00
2023-12-21T09:24:43.852Z,94070.00
2023-12-21T09:25:44.348Z,94074.00
2023-12-21T09:26:44.316Z,94078.00
2023-12-21T09:27:44.406Z,94078.00
2023-12-21T09:28:44.023Z,94078.00
2023-12-21T09:29:43.879Z,94069.00
2023-12-21T09:30:43.920Z,94063.00
2023-12-21T09:31:43.947Z,94060.00
2023-12-21T09:32:44.986Z,94056.00
2023-12-21T09:33:43.894Z,94056.00
2023-12-21T09:34:43.978Z,94053.00
2023-12-21T09:35:43.925Z,94048.00
2023-12-21T09:36:43.926Z,94045.00
2023-12-21T09:37:43.998Z,94046.00
2023-12-21T09:38:43.900Z,94048.00
2023-12-21T09:39:43.907Z,94045.00
2023-12-21T09:40:43.969Z,94038.00
2023-12-21T09:41:53.610Z,94038.00
2023-12-21T09:42:45.186Z,94046.00
2023-12-21T09:43:43.935Z,94042.00
2023-12-21T09:44:43.924Z,94040.00
2023-12-21T09:45:43.924Z,94046.00
2023-12-21T09:46:44.422Z,94047.00
2023-12-21T09:47:44.204Z,94034.00
2023-12-21T09:48:44.190Z,94034.00
2023-12-21T09:49:44.122Z,94034.00
2023-12-21T09:50:44.681Z,94029.00
2023-12-21T09:51:44.327Z,94036.00
2023-12-21T09:52:44.236Z,94039.00
2023-12-21T09:53:44.321Z,94033.00
2023-12-21T09:54:44.328Z,94021.00
2023-12-21T09:55:44.485Z,94017.00
2023-12-21T09:56:44.414Z,94022.00
2023-12-21T09:57:44.482Z,94012.00
2023-12-21T09:58:44.888Z,94023.00
2023-12-21T09:59:44.556Z,94018.00
2023-12-21T10:00:44.567Z,94013.00
2023-12-21T10:01:47.168Z,94017.00
2023-12-21T10:02:44.656Z,94007.00
2023-12-21T10:03:44.828Z,94001.00
2023-12-21T10:04:44.654Z,94000.00
2023-12-21T10:05:44.691Z,94001.00
2023-12-21T10:06:44.629Z,93998.00
2023-12-21T10:07:44.707Z,93990.00
2023-12-21T10:08:47.643Z,93987.00
2023-12-21T10:09:44.631Z,93984.00
2023-12-21T10:10:44.688Z,93980.00
2023-12-21T10:11:44.644Z,93973.00
2023-12-21T10:12:44.791Z,93986.00
2023-12-21T10:13:44.845Z,93967.00
2023-12-21T10:14:44.632Z,93975.00
2023-12-21T10:15:44.674Z,93967.00
2023-12-21T10:16:44.739Z,93960.00
2023-12-21T10:17:44.699Z,93950.00
2023-12-21T10:18:44.692Z,93951.00
2023-12-21T10:19:44.881Z,93950.00
2023-12-21T10:20:44.697Z,93952.00
2023-12-21T10:21:44.640Z,93949.00
2023-12-21T10:22:44.947Z,93943.00
2023-12-21T10:23:44.643Z,93937.00
2023-12-21T10:24:44.861Z,93932.00
2023-12-21T10:25:44.666Z,93931.00
2023-12-21T10:26:46.999Z,93933.00
2023-12-21T10:27:44.674Z,93930.00
2023-12-21T10:28:44.796Z,93934.00
2023-12-21T10:29:44.851Z,93934.00
2023-12-21T10:30:44.636Z,93935.00
2023-12-21T10:31:44.709Z,93925.00
2023-12-21T10:32:46.705Z,93921.00
2023-12-21T10:33:44.686Z,93913.00
2023-12-21T10:34:44.970Z,93911.00
2023-12-21T10:35:44.692Z,93909.00
2023-12-21T10:36:44.678Z,93900.00
2023-12-21T10:37:44.794Z,93892.00
2023-12-21T10:38:46.467Z,93885.00
2023-12-21T10:39:44.863Z,93880.00
2023-12-21T10:40:44.727Z,93886.00
2023-12-21T10:41:44.766Z,93882.00
2023-12-21T10:42:44.742Z,93878.00
2023-12-21T10:43:44.722Z,93867.00
2023-12-21T10:44:44.850Z,93873.00
2023-12-21T10:45:44.662Z,93877.00
2023-12-21T10:46:44.996Z,93873.00
2023-12-21T10:47:44.699Z,93861.00
2023-12-21T10:48:44.787Z,93854.00
2023-12-21T10:49:44.997Z,93847.00
2023-12-21T10:50:46.659Z,93856.00
2023-12-21T10:51:45.412Z,93859.00
2023-12-21T10:52:45.197Z,93856.00
2023-12-21T10:53:44.915Z,93861.00
2023-12-21T10:54:44.904Z,93865.00
2023-12-21T10:55:45.056Z,93859.00
2023-12-21T10:56:46.508Z,93858.00
2023-12-21T10:57:45.091Z,93857.00
2023-12-21T10:58:44.959Z,93848.00
2023-12-21T10:59:45.362Z,93836.00
2023-12-21T11:00:45.419Z,93842.00
2023-12-21T11:01:44.984Z,93839.00
2023-12-21T11:02:46.499Z,93840.00
2023-12-21T11:03:45.199Z,93831.00
2023-12-21T11:04:45.575Z,93831.00
2023-12-21T11:05:45.408Z,93826.00
2023-12-21T11:06:45.859Z,93817.00
2023-12-21T11:07:45.480Z,93814.00
2023-12-21T11:08:45.517Z,93804.00
2023-12-21T11:09:45.573Z,93805.00
2023-12-21T11:10:45.713Z,93804.00
2023-12-21T11:11:45.799Z,93806.00
2023-12-21T11:12:45.849Z,93797.00
2023-12-21T11:13:45.790Z,93794.00
2023-12-21T11:14:47.333Z,93801.00
2023-12-21T11:15:45.875Z,93790.00
2023-12-21T11:16:45.901Z,93792.00
2023-12-21T11:17:45.954Z,93795.00
2023-12-21T11:18:45.887Z,93791.00
2023-12-21T11:19:45.928Z,93789.00
2023-12-21T11:20:48.520Z,93785.00
2023-12-21T11:21:45.865Z,93770.00
2023-12-21T11:22:46.170Z,93755.00
2023-12-21T11:23:45.841Z,93744.00
2023-12-21T11:24:45.901Z,93750.00
2023-12-21T11:25:47.457Z,93756.00
2023-12-21T11:26:45.861Z,93777.00
2023-12-21T11:27:45.852Z,93769.00
2023-12-21T11:28:45.962Z,93769.00
2023-12-21T11:29:46.380Z,93775.00
2023-12-21T11:30:45.878Z,93779.00
2023-12-21T11:31:45.889Z,93783.00
2023-12-21T11:32:49.025Z,93786.00
2023-12-21T11:33:46.098Z,93791.00
2023-12-21T11:34:45.960Z,93786.00
2023-12-21T11:35:45.953Z,93788.00
2023-12-21T11:36:46.371Z,93794.00
2023-12-21T11:37:45.924Z,93803.00
2023-12-21T11:38:48.898Z,93804.00
2023-12-21T11:39:46.911Z,93796.00
2023-12-21T11:40:46.006Z,93788.00
2023-12-21T11:41:45.923Z,93785.00
2023-12-21T11:42:46.489Z,93780.00
2023-12-21T11:43:46.006Z,93776.00
2023-12-21T11:44:48.241Z,93770.00
2023-12-21T11:45:45.918Z,93771.00